Time;durP1;ratioP1;P1;durP2;ratioP2;P2;SDS_P1;SDS_P2;PMS_P1;PMS_P2;Temp;Humidity;BMP_temperature;BMP_pressure;BME280_temperature;BME280_humidity;BME280_pressure;Samples;Min_cycle;Max_cycle;Signal;HPM_P1;HPM_P2
2023/10/25 00:01:40;;;;;;;8.60;3.72;;;;;;;;;;5040170;28;20502;-61
2023/10/25 00:04:07;;;;;;;7.13;3.83;;;;;;;;;;5040121;28;20502;-62
2023/10/25 00:06:36;;;;;;;5.65;3.17;;;;;;;;;;5046536;28;20415;-60
2023/10/25 00:09:03;;;;;;;6.10;3.50;;;;;;;;;;5041250;28;20406;-61
2023/10/25 00:11:31;;;;;;;7.55;3.78;;;;;;;;;;5041106;28;20417;-61
2023/10/25 00:13:58;;;;;;;7.60;3.50;;;;;;;;;;5039159;28;20469;-60
2023/10/25 00:16:25;;;;;;;5.88;3.90;;;;;;;;;;5040921;28;20422;-62
2023/10/25 00:18:52;;;;;;;9.35;3.55;;;;;;;;;;5041209;28;20433;-61
2023/10/25 00:21:19;;;;;;;9.30;3.45;;;;;;;;;;5038802;28;20484;-61
2023/10/25 00:23:48;;;;;;;7.45;3.35;;;;;;;;;;5040910;28;20883;-61
2023/10/25 00:26:15;;;;;;;6.97;3.10;;;;;;;;;;5041242;28;20463;-62
2023/10/25 00:28:42;;;;;;;6.23;3.10;;;;;;;;;;5038899;28;20497;-61
2023/10/25 00:31:09;;;;;;;7.25;3.30;;;;;;;;;;5040744;28;20462;-60
2023/10/25 00:33:36;;;;;;;7.13;3.03;;;;;;;;;;5040944;28;20413;-62
2023/10/25 00:36:03;;;;;;;6.93;3.60;;;;;;;;;;5044144;28;20463;-62
2023/10/25 00:38:30;;;;;;;7.35;3.60;;;;;;;;;;5040444;28;20431;-62
2023/10/25 00:40:58;;;;;;;7.30;3.10;;;;;;;;;;5039814;28;20413;-62
2023/10/25 00:43:25;;;;;;;6.40;3.40;;;;;;;;;;5041318;28;20463;-62
2023/10/25 00:46:01;;;;;;;9.35;3.75;;;;;;;;;;5038939;28;20419;-62
2023/10/25 00:48:28;;;;;;;8.05;3.58;;;;;;;;;;5038617;28;20893;-62
2023/10/25 00:50:55;;;;;;;7.78;3.80;;;;;;;;;;5041095;28;20409;-61
2023/10/25 00:53:23;;;;;;;10.32;3.25;;;;;;;;;;5039936;28;20419;-62
2023/10/25 00:55:51;;;;;;;6.32;3.30;;;;;;;;;;5041868;28;20466;-62
2023/10/25 00:58:20;;;;;;;6.97;3.03;;;;;;;;;;5045175;28;20453;-61
2023/10/25 01:00:47;;;;;;;6.57;3.60;;;;;;;;;;5044542;28;20467;-61
2023/10/25 01:03:17;;;;;;;7.70;3.27;;;;;;;;;;5042646;28;20893;-62
2023/10/25 01:05:44;;;;;;;6.57;3.70;;;;;;;;;;5047830;28;20428;-62
2023/10/25 01:08:11;;;;;;;8.55;3.40;;;;;;;;;;5044252;28;20412;-61
2023/10/25 01:10:38;;;;;;;7.60;3.70;;;;;;;;;;5045322;28;20409;-62
2023/10/25 01:13:05;;;;;;;5.32;3.33;;;;;;;;;;5043451;28;20411;-62
2023/10/25 01:15:34;;;;;;;7.23;3.47;;;;;;;;;;5046472;28;20873;-60
2023/10/25 01:18:01;;;;;;;6.53;3.47;;;;;;;;;;5042168;28;20414;-60
2023/10/25 01:20:28;;;;;;;7.60;3.60;;;;;;;;;;5044507;28;20433;-60
2023/10/25 01:22:56;;;;;;;11.38;3.55;;;;;;;;;;5044106;28;20467;-61
2023/10/25 01:25:23;;;;;;;9.07;3.60;;;;;;;;;;5042061;28;20812;-60
2023/10/25 01:27:51;;;;;;;6.30;3.40;;;;;;;;;;5044567;28;20487;-59
2023/10/25 01:30:18;;;;;;;7.65;3.50;;;;;;;;;;5045002;28;20409;-62
2023/10/25 01:32:45;;;;;;;8.07;3.67;;;;;;;;;;5042181;28;20415;-62
2023/10/25 01:35:12;;;;;;;8.85;3.78;;;;;;;;;;5046474;28;20413;-62
2023/10/25 01:37:39;;;;;;;6.57;3.42;;;;;;;;;;5045118;28;20823;-61
2023/10/25 01:40:09;;;;;;;8.85;3.88;;;;;;;;;;5042228;28;20514;-60
2023/10/25 01:42:36;;;;;;;8.02;3.67;;;;;;;;;;5044278;28;20409;-60
2023/10/25 01:45:03;;;;;;;7.80;3.58;;;;;;;;;;5044272;28;20487;-60
2023/10/25 01:47:30;;;;;;;10.85;3.92;;;;;;;;;;5041731;28;20419;-60
2023/10/25 01:49:57;;;;;;;6.93;3.67;;;;;;;;;;5044154;28;20508;-60
2023/10/25 01:52:24;;;;;;;10.90;3.50;;;;;;;;;;5043849;28;20417;-60
2023/10/25 01:54:51;;;;;;;8.13;3.60;;;;;;;;;;5041651;28;20415;-60
2023/10/25 01:57:20;;;;;;;9.25;3.75;;;;;;;;;;5044098;28;20504;-59
2023/10/25 01:59:47;;;;;;;8.90;3.88;;;;;;;;;;5043484;28;20433;-62
2023/10/25 02:02:14;;;;;;;7.50;3.30;;;;;;;;;;5041360;28;20422;-61
2023/10/25 02:04:41;;;;;;;10.25;3.97;;;;;;;;;;5045175;28;20880;-60
2023/10/25 02:07:08;;;;;;;6.70;3.60;;;;;;;;;;5045647;28;20421;-60
2023/10/25 02:09:35;;;;;;;5.97;3.50;;;;;;;;;;5041575;28;20407;-60
2023/10/25 02:12:02;;;;;;;7.38;3.40;;;;;;;;;;5043897;28;20413;-59
2023/10/25 02:14:30;;;;;;;6.43;3.33;;;;;;;;;;5043058;28;20414;-60
2023/10/25 02:16:57;;;;;;;7.97;3.77;;;;;;;;;;5041200;28;20415;-60
2023/10/25 02:19:24;;;;;;;8.75;3.58;;;;;;;;;;5046945;28;20472;-60
2023/10/25 02:21:51;;;;;;;10.25;3.60;;;;;;;;;;5046371;28;20817;-60
2023/10/25 02:24:18;;;;;;;7.88;3.30;;;;;;;;;;5044125;28;20417;-60
2023/10/25 02:26:45;;;;;;;8.35;3.55;;;;;;;;;;5032514;28;20422;-60
2023/10/25 02:29:12;;;;;;;5.45;3.47;;;;;;;;;;5032505;28;20407;-60
2023/10/25 02:31:41;;;;;;;9.48;3.67;;;;;;;;;;5032339;28;21089;-61
2023/10/25 02:34:08;;;;;;;9.60;3.92;;;;;;;;;;5041034;28;20411;-61
2023/10/25 02:36:35;;;;;;;7.65;3.50;;;;;;;;;;5044704;28;20497;-61
2023/10/25 02:39:02;;;;;;;5.43;3.50;;;;;;;;;;5044675;28;20512;-61
2023/10/25 02:41:29;;;;;;;7.50;3.55;;;;;;;;;;5040635;28;21078;-61
2023/10/25 02:43:57;;;;;;;7.82;4.15;;;;;;;;;;5042740;28;20405;-62
2023/10/25 02:46:24;;;;;;;8.60;3.50;;;;;;;;;;5043140;28;20409;-62
2023/10/25 02:48:53;;;;;;;8.85;3.78;;;;;;;;;;5040590;28;20411;-61
2023/10/25 02:51:20;;;;;;;7.47;4.03;;;;;;;;;;5042238;28;20413;-61
2023/10/25 02:53:47;;;;;;;7.38;4.03;;;;;;;;;;5043375;28;20409;-61
2023/10/25 02:56:14;;;;;;;11.60;4.38;;;;;;;;;;5040800;28;20412;-61
2023/10/25 02:58:41;;;;;;;7.38;3.97;;;;;;;;;;5042319;28;20941;-62
2023/10/25 03:01:08;;;;;;;11.20;4.30;;;;;;;;;;5042722;28;20417;-61
2023/10/25 03:03:36;;;;;;;6.57;4.45;;;;;;;;;;5040616;28;20450;-61
2023/10/25 03:06:04;;;;;;;8.50;3.80;;;;;;;;;;5045201;28;20459;-61
2023/10/25 03:08:31;;;;;;;9.65;4.32;;;;;;;;;;5043511;28;20415;-61
2023/10/25 03:10:58;;;;;;;9.82;4.30;;;;;;;;;;5043094;28;20451;-62
2023/10/25 03:13:25;;;;;;;7.82;5.13;;;;;;;;;;5041010;28;20415;-61
2023/10/25 03:15:52;;;;;;;8.53;4.30;;;;;;;;;;5041194;28;20415;-62
2023/10/25 03:18:19;;;;;;;7.82;4.80;;;;;;;;;;5042505;28;20455;-61
2023/10/25 03:20:46;;;;;;;7.95;4.30;;;;;;;;;;5041008;28;20458;-60
2023/10/25 03:23:15;;;;;;;7.55;4.40;;;;;;;;;;5040934;28;20411;-61
2023/10/25 03:25:42;;;;;;;9.40;4.47;;;;;;;;;;5042901;28;20418;-60
2023/10/25 03:28:09;;;;;;;9.80;4.60;;;;;;;;;;5040580;28;20411;-61
2023/10/25 03:30:37;;;;;;;10.02;4.45;;;;;;;;;;5040747;28;20816;-61
2023/10/25 03:33:04;;;;;;;10.43;4.68;;;;;;;;;;5042729;28;20858;-62
2023/10/25 03:35:31;;;;;;;9.77;4.82;;;;;;;;;;5044494;28;20451;-61
2023/10/25 03:37:58;;;;;;;11.13;5.10;;;;;;;;;;5045867;28;20467;-61
2023/10/25 03:40:26;;;;;;;9.48;4.88;;;;;;;;;;5039531;28;20767;-62
2023/10/25 03:42:53;;;;;;;10.07;4.80;;;;;;;;;;5041593;28;20413;-61
2023/10/25 03:45:20;;;;;;;9.82;4.50;;;;;;;;;;5041410;28;20891;-61
2023/10/25 03:47:47;;;;;;;7.97;4.43;;;;;;;;;;5039503;28;20559;-61
2023/10/25 03:50:14;;;;;;;8.02;4.22;;;;;;;;;;5041634;28;20463;-61
2023/10/25 03:52:41;;;;;;;7.53;4.65;;;;;;;;;;5041525;28;20766;-61
2023/10/25 03:55:09;;;;;;;11.43;4.65;;;;;;;;;;5039603;28;20413;-61
2023/10/25 03:57:37;;;;;;;8.07;4.40;;;;;;;;;;5040272;28;20434;-61
2023/10/25 04:00:05;;;;;;;7.95;4.20;;;;;;;;;;5040979;28;20493;-61
2023/10/25 04:02:32;;;;;;;7.38;4.20;;;;;;;;;;5042402;28;20413;-61
2023/10/25 04:04:59;;;;;;;9.38;4.80;;;;;;;;;;5043570;28;20417;-62
2023/10/25 04:07:26;;;;;;;11.60;5.00;;;;;;;;;;5044714;28;20808;-61
2023/10/25 04:09:53;;;;;;;9.57;4.65;;;;;;;;;;5042158;28;20840;-60
2023/10/25 04:12:20;;;;;;;9.98;4.80;;;;;;;;;;5039471;28;20415;-61
2023/10/25 04:14:48;;;;;;;10.25;4.93;;;;;;;;;;5040585;28;20413;-61
2023/10/25 04:17:15;;;;;;;10.13;4.85;;;;;;;;;;5041930;28;20417;-60
2023/10/25 04:19:43;;;;;;;7.88;4.43;;;;;;;;;;5039653;28;20488;-60
2023/10/25 04:22:13;;;;;;;9.60;5.07;;;;;;;;;;5040976;28;20471;-60
2023/10/25 04:24:40;;;;;;;9.43;4.97;;;;;;;;;;5045386;28;20478;-61
2023/10/25 04:27:07;;;;;;;12.20;5.30;;;;;;;;;;5045900;28;20834;-60
2023/10/25 04:29:34;;;;;;;9.15;5.05;;;;;;;;;;5044039;28;20415;-60
2023/10/25 04:32:02;;;;;;;11.02;5.13;;;;;;;;;;5041919;28;20405;-60
2023/10/25 04:34:29;;;;;;;10.10;5.03;;;;;;;;;;5039633;28;20759;-60
2023/10/25 04:36:56;;;;;;;9.80;5.50;;;;;;;;;;5044435;28;20409;-61
2023/10/25 04:39:23;;;;;;;10.73;5.60;;;;;;;;;;5041963;28;20419;-60
2023/10/25 04:41:50;;;;;;;10.38;5.60;;;;;;;;;;5043081;28;20415;-61
2023/10/25 04:44:17;;;;;;;9.98;5.40;;;;;;;;;;5040983;28;20402;-60
2023/10/25 04:46:44;;;;;;;12.70;5.60;;;;;;;;;;5042120;28;20823;-61
2023/10/25 04:49:12;;;;;;;10.00;5.28;;;;;;;;;;5039116;28;20399;-61
2023/10/25 04:51:39;;;;;;;10.82;5.40;;;;;;;;;;5040018;28;20452;-60
2023/10/25 04:54:07;;;;;;;8.10;5.57;;;;;;;;;;5041172;28;20883;-61
2023/10/25 04:56:34;;;;;;;11.52;5.68;;;;;;;;;;5038957;28;20419;-61
2023/10/25 04:59:02;;;;;;;10.85;5.68;;;;;;;;;;5040104;28;20414;-60
2023/10/25 05:01:29;;;;;;;7.95;4.93;;;;;;;;;;5041295;28;20421;-61
2023/10/25 05:03:56;;;;;;;10.40;5.53;;;;;;;;;;5038579;28;20419;-60
2023/10/25 05:06:24;;;;;;;10.55;4.93;;;;;;;;;;5045283;28;20417;-60
2023/10/25 05:08:52;;;;;;;8.97;5.13;;;;;;;;;;5041299;28;20405;-60
2023/10/25 05:11:20;;;;;;;9.45;5.00;;;;;;;;;;5038676;28;20492;-60
2023/10/25 05:13:48;;;;;;;9.73;5.18;;;;;;;;;;5039742;28;20420;-61
2023/10/25 05:16:15;;;;;;;8.82;5.25;;;;;;;;;;5041047;28;20486;-61
2023/10/25 05:18:42;;;;;;;9.75;5.45;;;;;;;;;;5038701;28;20402;-60
2023/10/25 05:21:11;;;;;;;9.70;5.57;;;;;;;;;;5039466;28;20421;-61
2023/10/25 05:23:40;;;;;;;10.32;5.45;;;;;;;;;;5041364;28;20413;-59
2023/10/25 05:26:07;;;;;;;8.38;5.00;;;;;;;;;;5039072;28;20464;-59
2023/10/25 05:28:35;;;;;;;10.43;5.25;;;;;;;;;;5039186;28;20419;-60
2023/10/25 05:31:03;;;;;;;8.57;4.50;;;;;;;;;;5042085;28;20405;-60
2023/10/25 05:33:31;;;;;;;8.52;4.85;;;;;;;;;;5041617;28;20472;-60
2023/10/25 05:35:59;;;;;;;9.43;5.17;;;;;;;;;;5044710;28;20499;-60
2023/10/25 05:38:26;;;;;;;6.77;5.00;;;;;;;;;;5038832;28;20545;-61
2023/10/25 05:40:55;;;;;;;7.60;5.00;;;;;;;;;;5041522;28;20797;-61
2023/10/25 05:43:24;;;;;;;8.43;5.10;;;;;;;;;;5044451;28;21009;-61
2023/10/25 05:45:51;;;;;;;6.20;4.83;;;;;;;;;;5042174;28;20407;-61
2023/10/25 05:48:18;;;;;;;8.73;5.13;;;;;;;;;;5045655;28;20997;-59
2023/10/25 05:50:46;;;;;;;8.57;5.32;;;;;;;;;;5042248;28;20852;-61
2023/10/25 05:53:14;;;;;;;9.73;4.90;;;;;;;;;;5044555;28;20963;-61
2023/10/25 05:55:41;;;;;;;8.40;5.13;;;;;;;;;;5042990;28;20418;-61
2023/10/25 05:58:10;;;;;;;9.85;5.03;;;;;;;;;;5041826;28;20414;-61
2023/10/25 06:00:39;;;;;;;9.38;5.25;;;;;;;;;;5041571;28;20426;-60
2023/10/25 06:03:06;;;;;;;7.50;5.33;;;;;;;;;;5042830;28;20479;-61
2023/10/25 06:05:34;;;;;;;8.80;5.18;;;;;;;;;;5045054;28;20414;-61
2023/10/25 06:08:01;;;;;;;9.63;5.30;;;;;;;;;;5044539;28;20488;-60
2023/10/25 06:10:29;;;;;;;9.57;5.40;;;;;;;;;;5042765;28;20407;-61
2023/10/25 06:12:56;;;;;;;8.63;5.57;;;;;;;;;;5041495;28;20422;-59
2023/10/25 06:15:24;;;;;;;9.88;5.63;;;;;;;;;;5041686;28;20419;-61
2023/10/25 06:17:52;;;;;;;10.70;5.82;;;;;;;;;;5042261;28;20413;-61
2023/10/25 06:20:20;;;;;;;9.45;5.30;;;;;;;;;;5043826;28;20429;-61
2023/10/25 06:22:48;;;;;;;8.10;6.07;;;;;;;;;;5041426;28;20461;-61
2023/10/25 06:25:15;;;;;;;9.15;5.82;;;;;;;;;;5042149;28;20409;-60
2023/10/25 06:27:42;;;;;;;11.13;5.88;;;;;;;;;;5044151;28;20409;-61
2023/10/25 06:30:09;;;;;;;10.10;6.20;;;;;;;;;;5041532;28;20414;-61
2023/10/25 06:32:38;;;;;;;9.70;6.30;;;;;;;;;;5042085;28;20876;-63
2023/10/25 06:35:05;;;;;;;13.85;5.85;;;;;;;;;;5045431;28;20982;-61
2023/10/25 06:37:32;;;;;;;9.80;5.95;;;;;;;;;;5041632;28;20461;-60
2023/10/25 06:40:00;;;;;;;9.68;5.60;;;;;;;;;;5048089;28;20467;-61
2023/10/25 06:42:27;;;;;;;9.75;5.78;;;;;;;;;;5044270;28;20413;-61
2023/10/25 06:44:55;;;;;;;9.25;5.78;;;;;;;;;;5045919;28;20945;-61
2023/10/25 06:47:25;;;;;;;7.07;5.23;;;;;;;;;;5042049;28;20856;-61
2023/10/25 06:49:54;;;;;;;10.93;4.65;;;;;;;;;;5050166;28;20493;-65
2023/10/25 06:52:21;;;;;;;11.68;5.35;;;;;;;;;;5043488;28;20417;-67
2023/10/25 06:54:49;;;;;;;7.00;4.30;;;;;;;;;;5044022;28;20776;-67
2023/10/25 06:57:16;;;;;;;8.90;4.30;;;;;;;;;;5039810;28;20449;-65
2023/10/25 06:59:44;;;;;;;6.47;3.80;;;;;;;;;;5045606;28;20415;-61
2023/10/25 07:02:18;;;;;;;7.18;3.95;;;;;;;;;;5048797;28;20429;-61
2023/10/25 07:04:47;;;;;;;10.23;4.05;;;;;;;;;;5044032;28;20405;-62
2023/10/25 07:07:16;;;;;;;7.05;3.70;;;;;;;;;;5046522;28;20414;-61
2023/10/25 07:09:43;;;;;;;7.35;3.45;;;;;;;;;;5044683;28;20407;-61
2023/10/25 07:12:10;;;;;;;8.00;3.38;;;;;;;;;;5042808;28;20463;-62
2023/10/25 07:14:37;;;;;;;7.82;3.13;;;;;;;;;;5046436;28;20415;-61
2023/10/25 07:17:05;;;;;;;7.20;3.35;;;;;;;;;;5044167;28;20413;-59
2023/10/25 07:19:32;;;;;;;7.22;3.30;;;;;;;;;;5044985;28;20449;-61
2023/10/25 07:21:59;;;;;;;6.90;3.10;;;;;;;;;;5045681;28;20429;-59
2023/10/25 07:24:27;;;;;;;7.43;2.90;;;;;;;;;;5043161;28;20409;-61
2023/10/25 07:26:54;;;;;;;7.18;2.88;;;;;;;;;;5046288;28;20417;-59
2023/10/25 07:29:21;;;;;;;7.82;3.20;;;;;;;;;;5041112;28;20984;-61
2023/10/25 07:31:48;;;;;;;5.10;2.77;;;;;;;;;;5041625;28;20855;-59
2023/10/25 07:34:15;;;;;;;9.52;2.75;;;;;;;;;;5042022;28;20822;-62
2023/10/25 07:36:42;;;;;;;8.63;2.67;;;;;;;;;;5046235;28;20469;-61
2023/10/25 07:39:09;;;;;;;7.90;2.13;;;;;;;;;;5044560;28;20469;-61
2023/10/25 07:41:38;;;;;;;4.80;2.05;;;;;;;;;;5040895;28;20450;-61
2023/10/25 07:44:05;;;;;;;5.72;2.22;;;;;;;;;;5045522;28;20443;-59
2023/10/25 07:46:32;;;;;;;5.40;1.95;;;;;;;;;;5043695;28;20413;-62
2023/10/25 07:48:59;;;;;;;7.07;2.00;;;;;;;;;;5044504;28;21172;-61
2023/10/25 07:51:26;;;;;;;7.88;2.40;;;;;;;;;;5042205;28;20470;-61
2023/10/25 07:53:53;;;;;;;6.95;2.75;;;;;;;;;;5044967;28;20819;-60
2023/10/25 07:56:20;;;;;;;5.65;2.55;;;;;;;;;;5047355;28;20471;-62
2023/10/25 07:58:50;;;;;;;5.65;1.80;;;;;;;;;;5045455;28;20429;-61
2023/10/25 08:01:17;;;;;;;6.57;2.10;;;;;;;;;;5046452;28;20433;-61
2023/10/25 08:03:44;;;;;;;5.95;1.90;;;;;;;;;;5042036;28;20409;-61
2023/10/25 08:06:11;;;;;;;4.28;1.50;;;;;;;;;;5047988;28;20436;-61
2023/10/25 08:08:39;;;;;;;4.53;1.80;;;;;;;;;;5048442;28;20466;-59
2023/10/25 08:11:07;;;;;;;4.35;1.75;;;;;;;;;;5041412;28;20969;-59
2023/10/25 08:13:38;;;;;;;2.97;1.40;;;;;;;;;;5040725;28;20419;-59
2023/10/25 08:16:07;;;;;;;5.90;1.65;;;;;;;;;;5043481;28;20409;-61
2023/10/25 08:18:34;;;;;;;4.70;1.47;;;;;;;;;;5050026;28;20424;-59
2023/10/25 08:21:01;;;;;;;3.85;1.40;;;;;;;;;;5044731;28;20429;-62
2023/10/25 08:23:28;;;;;;;6.63;1.88;;;;;;;;;;5045160;28;20421;-63
2023/10/25 08:26:00;;;;;;;3.75;1.58;;;;;;;;;;5043938;28;20417;-63
2023/10/25 08:28:27;;;;;;;3.58;1.40;;;;;;;;;;5042753;28;20413;-62
2023/10/25 08:30:54;;;;;;;3.40;1.42;;;;;;;;;;5037561;28;20893;-61
2023/10/25 08:33:22;;;;;;;4.07;1.60;;;;;;;;;;5040862;28;20409;-64
2023/10/25 08:35:49;;;;;;;3.97;1.53;;;;;;;;;;5046875;28;20836;-61
2023/10/25 08:38:16;;;;;;;3.85;1.63;;;;;;;;;;5044049;28;20416;-63
2023/10/25 08:40:44;;;;;;;5.32;1.90;;;;;;;;;;5043324;28;20859;-59
2023/10/25 08:43:16;;;;;;;6.20;1.57;;;;;;;;;;5045758;28;20410;-64
2023/10/25 08:45:44;;;;;;;2.88;1.63;;;;;;;;;;5039725;28;20490;-59
2023/10/25 08:48:11;;;;;;;6.18;1.70;;;;;;;;;;5039461;28;20813;-64
2023/10/25 08:50:40;;;;;;;7.88;3.95;;;;;;;;;;5040855;28;20409;-62
2023/10/25 08:53:07;;;;;;;7.43;2.80;;;;;;;;;;5038925;28;20419;-63
2023/10/25 08:55:34;;;;;;;3.78;1.90;;;;;;;;;;5045738;28;20410;-65
2023/10/25 08:58:01;;;;;;;2.72;1.40;;;;;;;;;;5040164;28;20465;-63
2023/10/25 09:00:31;;;;;;;5.38;1.70;;;;;;;;;;5045163;28;20412;-57
2023/10/25 09:03:00;;;;;;;2.58;1.27;;;;;;;;;;5050150;28;20426;-67
2023/10/25 09:05:39;;;;;;;2.83;1.25;;;;;;;;;;5050765;28;20417;-66
2023/10/25 09:08:17;;;;;;;2.78;1.48;;;;;;;;;;5037585;28;20821;-67
2023/10/25 09:10:44;;;;;;;3.13;1.48;;;;;;;;;;5043270;28;20447;-66
2023/10/25 09:13:13;;;;;;;2.70;1.40;;;;;;;;;;5040751;28;20424;-66
2023/10/25 09:15:40;;;;;;;4.78;1.42;;;;;;;;;;5039723;28;20915;-66
2023/10/25 09:18:07;;;;;;;5.75;1.23;;;;;;;;;;5041707;28;20468;-62
2023/10/25 09:20:35;;;;;;;4.45;1.42;;;;;;;;;;5045174;28;20492;-59
2023/10/25 09:23:10;;;;;;;4.18;1.30;;;;;;;;;;5042353;28;20422;-60
2023/10/25 09:25:39;;;;;;;4.47;2.08;;;;;;;;;;5042152;28;20486;-62
2023/10/25 09:28:07;;;;;;;2.47;1.13;;;;;;;;;;5045772;28;20413;-58
2023/10/25 09:30:34;;;;;;;4.13;1.40;;;;;;;;;;5041611;28;20409;-61
2023/10/25 09:33:01;;;;;;;2.60;1.48;;;;;;;;;;5045552;28;20411;-60
2023/10/25 09:35:28;;;;;;;3.57;1.60;;;;;;;;;;5049826;28;20409;-59
2023/10/25 09:37:55;;;;;;;3.90;1.42;;;;;;;;;;5047875;28;20467;-61
2023/10/25 09:40:22;;;;;;;5.07;1.50;;;;;;;;;;5041525;28;20919;-61
2023/10/25 09:42:52;;;;;;;3.95;1.45;;;;;;;;;;5043553;28;20486;-58
2023/10/25 09:45:22;;;;;;;4.68;1.23;;;;;;;;;;5043602;28;20424;-58
2023/10/25 09:47:53;;;;;;;3.75;1.33;;;;;;;;;;5040814;28;20414;-62
2023/10/25 09:50:23;;;;;;;3.50;1.30;;;;;;;;;;5045351;28;20436;-63
2023/10/25 09:52:52;;;;;;;3.00;1.13;;;;;;;;;;5037198;28;20806;-66
2023/10/25 09:55:23;;;;;;;3.17;1.40;;;;;;;;;;5038622;28;20407;-63
2023/10/25 09:57:53;;;;;;;2.35;1.30;;;;;;;;;;5041133;28;20415;-61
2023/10/25 10:00:20;;;;;;;4.53;1.40;;;;;;;;;;5033006;28;20857;-59
2023/10/25 10:02:50;;;;;;;3.77;1.30;;;;;;;;;;5032763;28;20569;-60
2023/10/25 10:05:20;;;;;;;5.53;1.60;;;;;;;;;;5040324;28;20492;-63
2023/10/25 10:07:52;;;;;;;3.28;1.50;;;;;;;;;;5045473;28;20848;-62
2023/10/25 10:10:22;;;;;;;3.35;1.50;;;;;;;;;;5047626;28;20427;-58
2023/10/25 10:12:49;;;;;;;5.07;1.60;;;;;;;;;;5039799;28;20551;-60
2023/10/25 10:15:19;;;;;;;3.33;1.63;;;;;;;;;;5036169;28;20964;-60
2023/10/25 10:17:46;;;;;;;3.15;1.48;;;;;;;;;;5040711;28;20445;-62
2023/10/25 10:20:24;;;;;;;4.03;1.42;;;;;;;;;;5039076;28;20422;-60
2023/10/25 10:23:04;;;;;;;4.38;1.50;;;;;;;;;;5031545;28;20438;-62
2023/10/25 10:25:44;;;;;;;7.55;3.38;;;;;;;;;;5032377;28;20411;-62
2023/10/25 10:28:12;;;;;;;4.28;1.85;;;;;;;;;;5030538;28;21004;-61
2023/10/25 10:30:40;;;;;;;4.20;1.60;;;;;;;;;;5032148;28;20877;-68
2023/10/25 10:33:09;;;;;;;3.17;1.60;;;;;;;;;;5031589;28;20874;-62
2023/10/25 10:35:36;;;;;;;3.70;1.80;;;;;;;;;;5039460;28;20411;-62
2023/10/25 10:38:04;;;;;;;4.53;1.73;;;;;;;;;;5043192;28;20900;-60
2023/10/25 10:40:31;;;;;;;5.53;2.10;;;;;;;;;;5041590;28;21104;-57
2023/10/25 10:42:58;;;;;;;5.03;1.77;;;;;;;;;;5042068;28;20429;-59
2023/10/25 10:45:30;;;;;;;2.75;1.67;;;;;;;;;;5040305;28;20411;-62
2023/10/25 10:48:02;;;;;;;3.87;1.77;;;;;;;;;;5040789;28;20574;-61
2023/10/25 10:50:30;;;;;;;3.33;1.70;;;;;;;;;;5043171;28;20463;-61
2023/10/25 10:52:57;;;;;;;4.68;1.75;;;;;;;;;;5041570;28;20942;-60
2023/10/25 10:55:25;;;;;;;3.45;1.80;;;;;;;;;;5041680;28;20422;-66
2023/10/25 10:57:53;;;;;;;2.40;1.50;;;;;;;;;;5039802;28;20419;-61
2023/10/25 11:00:21;;;;;;;3.42;1.80;;;;;;;;;;5041152;28;20409;-62
2023/10/25 11:02:48;;;;;;;3.40;1.83;;;;;;;;;;5042312;28;20425;-62
2023/10/25 11:05:19;;;;;;;4.43;1.70;;;;;;;;;;5042782;28;20413;-62
2023/10/25 11:07:48;;;;;;;5.07;1.70;;;;;;;;;;5045038;28;20409;-62
2023/10/25 11:10:15;;;;;;;4.00;1.70;;;;;;;;;;5046067;28;20417;-62
2023/10/25 11:12:42;;;;;;;3.97;1.83;;;;;;;;;;5045099;28;20409;-62
2023/10/25 11:15:11;;;;;;;2.80;1.50;;;;;;;;;;5036560;28;20478;-62
2023/10/25 11:17:38;;;;;;;2.75;1.75;;;;;;;;;;5040985;28;20414;-67
2023/10/25 11:20:06;;;;;;;2.53;1.63;;;;;;;;;;5049345;28;20421;-65
2023/10/25 11:22:36;;;;;;;3.85;1.85;;;;;;;;;;5042447;28;20515;-64
2023/10/25 11:25:09;;;;;;;2.77;1.60;;;;;;;;;;5042443;28;20541;-63
2023/10/25 11:27:36;;;;;;;4.32;1.80;;;;;;;;;;5041187;28;20528;-64
2023/10/25 11:30:05;;;;;;;2.78;1.80;;;;;;;;;;5042689;28;20436;-61
2023/10/25 11:32:33;;;;;;;2.90;1.70;;;;;;;;;;5047282;28;20410;-61
2023/10/25 11:35:00;;;;;;;3.80;1.77;;;;;;;;;;5045455;28;20772;-61
2023/10/25 11:37:28;;;;;;;3.85;1.90;;;;;;;;;;5046010;28;20860;-58
2023/10/25 11:39:57;;;;;;;3.13;1.67;;;;;;;;;;5042872;28;20447;-60
2023/10/25 11:42:24;;;;;;;2.08;1.75;;;;;;;;;;5039090;28;20512;-59
2023/10/25 11:44:51;;;;;;;4.07;1.70;;;;;;;;;;5038994;28;20415;-62
2023/10/25 11:47:18;;;;;;;4.00;1.90;;;;;;;;;;5040822;28;20504;-59
2023/10/25 11:49:45;;;;;;;2.97;1.83;;;;;;;;;;5040813;28;20500;-64
2023/10/25 11:52:12;;;;;;;3.28;1.60;;;;;;;;;;5038452;28;20480;-62
2023/10/25 11:54:39;;;;;;;3.15;1.70;;;;;;;;;;5041094;28;21120;-63
2023/10/25 11:57:08;;;;;;;3.63;2.50;;;;;;;;;;5037973;28;21156;-62
2023/10/25 11:59:35;;;;;;;2.03;1.70;;;;;;;;;;5041579;28;20409;-61
2023/10/25 12:02:02;;;;;;;2.88;2.00;;;;;;;;;;5036586;28;20433;-61
2023/10/25 12:04:29;;;;;;;4.22;2.38;;;;;;;;;;5040375;28;20473;-59
2023/10/25 12:06:56;;;;;;;3.42;2.22;;;;;;;;;;5046684;28;20836;-61
2023/10/25 12:09:23;;;;;;;3.13;2.10;;;;;;;;;;5043312;28;20419;-60
2023/10/25 12:11:50;;;;;;;3.37;2.30;;;;;;;;;;5043118;28;20421;-61
2023/10/25 12:14:18;;;;;;;3.63;2.22;;;;;;;;;;5045806;28;21121;-60
2023/10/25 12:16:45;;;;;;;4.43;2.85;;;;;;;;;;5039770;28;20422;-61
2023/10/25 12:19:14;;;;;;;4.35;2.45;;;;;;;;;;5046281;28;22481;-57
2023/10/25 12:21:41;;;;;;;4.18;2.63;;;;;;;;;;5040185;28;20415;-58
2023/10/25 12:24:09;;;;;;;4.00;3.28;;;;;;;;;;5044833;28;20405;-59
2023/10/25 12:26:36;;;;;;;4.15;2.90;;;;;;;;;;5042801;28;20427;-64
2023/10/25 12:29:03;;;;;;;5.57;2.97;;;;;;;;;;5044929;28;20937;-62
2023/10/25 12:31:31;;;;;;;4.30;2.92;;;;;;;;;;5044900;28;20413;-62
2023/10/25 12:33:58;;;;;;;4.78;3.20;;;;;;;;;;5041938;28;20478;-62
2023/10/25 12:36:25;;;;;;;4.93;3.35;;;;;;;;;;5048512;28;20471;-56
2023/10/25 12:38:52;;;;;;;3.92;2.90;;;;;;;;;;5040843;28;20844;-62
2023/10/25 12:41:19;;;;;;;4.32;3.10;;;;;;;;;;5043720;28;20467;-62
2023/10/25 12:43:47;;;;;;;6.18;3.33;;;;;;;;;;5045669;28;21005;-59
2023/10/25 12:46:15;;;;;;;4.70;3.78;;;;;;;;;;5040173;28;20498;-57
2023/10/25 12:48:43;;;;;;;5.70;3.50;;;;;;;;;;5038790;28;20417;-56
2023/10/25 12:51:10;;;;;;;6.10;3.50;;;;;;;;;;5040126;28;20410;-60
2023/10/25 12:53:38;;;;;;;4.68;3.35;;;;;;;;;;5038043;28;20817;-58
2023/10/25 12:56:05;;;;;;;4.30;3.38;;;;;;;;;;5039913;28;20482;-61
2023/10/25 12:58:32;;;;;;;5.18;3.47;;;;;;;;;;5038348;28;20957;-61
2023/10/25 13:00:59;;;;;;;4.50;3.40;;;;;;;;;;5042800;28;20415;-58
2023/10/25 13:03:26;;;;;;;5.85;3.58;;;;;;;;;;5040253;28;20438;-61
2023/10/25 13:05:55;;;;;;;4.95;3.40;;;;;;;;;;5045982;28;20415;-60
2023/10/25 13:08:22;;;;;;;3.88;3.20;;;;;;;;;;5038215;28;20405;-61
2023/10/25 13:10:49;;;;;;;6.33;3.50;;;;;;;;;;5039791;28;20468;-61
2023/10/25 13:13:16;;;;;;;4.35;3.28;;;;;;;;;;5038850;28;20817;-60
2023/10/25 13:15:43;;;;;;;4.60;3.40;;;;;;;;;;5039721;28;20456;-60
2023/10/25 13:18:10;;;;;;;4.40;3.30;;;;;;;;;;5039175;28;20408;-60
2023/10/25 13:20:37;;;;;;;4.32;3.47;;;;;;;;;;5041312;28;20409;-56
2023/10/25 13:23:06;;;;;;;5.00;3.60;;;;;;;;;;5041530;28;20491;-60
2023/10/25 13:25:33;;;;;;;5.60;3.63;;;;;;;;;;5040066;28;20411;-61
2023/10/25 13:28:00;;;;;;;4.30;3.30;;;;;;;;;;5038379;28;20407;-59
2023/10/25 13:30:27;;;;;;;4.07;3.00;;;;;;;;;;5030029;28;20419;-59
2023/10/25 13:32:55;;;;;;;4.68;3.03;;;;;;;;;;5030020;28;20429;-59
2023/10/25 13:35:22;;;;;;;3.40;3.10;;;;;;;;;;5038391;28;20501;-60
2023/10/25 13:37:49;;;;;;;3.92;2.92;;;;;;;;;;5040353;28;20465;-60
2023/10/25 13:40:17;;;;;;;4.00;2.88;;;;;;;;;;5039957;28;20413;-60
2023/10/25 13:42:44;;;;;;;3.13;2.72;;;;;;;;;;5040581;28;20431;-53
2023/10/25 13:45:11;;;;;;;5.40;2.90;;;;;;;;;;5038454;28;20415;-58
2023/10/25 13:47:40;;;;;;;3.00;2.70;;;;;;;;;;5039790;28;20414;-60
2023/10/25 13:50:07;;;;;;;2.80;2.22;;;;;;;;;;5040984;28;20500;-58
2023/10/25 13:52:34;;;;;;;4.35;2.55;;;;;;;;;;5040873;28;20402;-58
2023/10/25 13:55:02;;;;;;;3.07;2.67;;;;;;;;;;5039305;28;20415;-60
2023/10/25 13:57:30;;;;;;;3.60;2.67;;;;;;;;;;5038115;28;20427;-58
2023/10/25 13:59:58;;;;;;;2.92;2.55;;;;;;;;;;5029795;28;20465;-61
2023/10/25 14:02:25;;;;;;;3.28;2.70;;;;;;;;;;5031720;28;20450;-60
2023/10/25 14:04:52;;;;;;;2.67;2.47;;;;;;;;;;5037466;28;20421;-60
2023/10/25 14:07:19;;;;;;;2.45;2.15;;;;;;;;;;5044652;28;20498;-60
2023/10/25 14:09:46;;;;;;;3.15;2.50;;;;;;;;;;5042611;28;20476;-59
2023/10/25 14:12:13;;;;;;;4.63;2.80;;;;;;;;;;5041795;28;20988;-60
2023/10/25 14:14:42;;;;;;;3.20;2.90;;;;;;;;;;5044100;28;20459;-57
2023/10/25 14:17:09;;;;;;;6.07;2.95;;;;;;;;;;5042487;28;20407;-58
2023/10/25 14:19:36;;;;;;;3.88;2.97;;;;;;;;;;5042100;28;20414;-62
2023/10/25 14:22:03;;;;;;;3.25;2.95;;;;;;;;;;5044367;28;20822;-59
2023/10/25 14:24:30;;;;;;;3.20;2.90;;;;;;;;;;5040299;28;20428;-58
2023/10/25 14:26:57;;;;;;;4.18;3.05;;;;;;;;;;5042938;28;20413;-58
2023/10/25 14:29:24;;;;;;;3.95;3.20;;;;;;;;;;5041370;28;20411;-60
2023/10/25 14:31:52;;;;;;;3.92;3.25;;;;;;;;;;5043291;28;20409;-58
2023/10/25 14:34:19;;;;;;;3.72;3.08;;;;;;;;;;5043174;28;20728;-58
2023/10/25 14:36:46;;;;;;;3.58;2.85;;;;;;;;;;5044939;28;20415;-60
2023/10/25 14:39:14;;;;;;;4.70;3.30;;;;;;;;;;5045007;28;20820;-58
2023/10/25 14:41:41;;;;;;;4.70;3.40;;;;;;;;;;5041781;28;20446;-59
2023/10/25 14:44:08;;;;;;;4.33;3.30;;;;;;;;;;5043845;28;20503;-58